createdAt,value
2023-05-05T00:01:29.992Z,4.57
2023-05-05T00:03:56.163Z,4.51
2023-05-05T00:06:22.340Z,4.49
2023-05-05T00:08:48.512Z,4.48
2023-05-05T00:11:14.652Z,4.46
2023-05-05T00:13:40.793Z,4.40
2023-05-05T00:16:06.965Z,4.36
2023-05-05T00:18:33.200Z,4.34
2023-05-05T00:20:59.543Z,4.32
2023-05-05T00:23:25.737Z,4.24
2023-05-05T00:25:51.827Z,4.16
2023-05-05T00:28:17.971Z,4.09
2023-05-05T00:30:44.157Z,3.98
2023-05-05T00:33:10.639Z,3.91
2023-05-05T00:35:36.728Z,3.85
2023-05-05T00:38:04.440Z,3.83
2023-05-05T00:40:30.861Z,3.83
2023-05-05T00:42:58.829Z,3.84
2023-05-05T00:45:25.335Z,3.82
2023-05-05T00:47:51.521Z,3.77
2023-05-05T00:50:17.699Z,3.74
2023-05-05T00:52:44.031Z,3.71
2023-05-05T00:55:10.083Z,3.65
2023-05-05T00:57:36.307Z,3.60
2023-05-05T01:00:02.672Z,3.55
2023-05-05T01:02:30.387Z,3.52
2023-05-05T01:04:57.709Z,3.53
2023-05-05T01:07:23.911Z,3.52
2023-05-05T01:09:57.952Z,3.49
2023-05-05T01:12:30.632Z,3.50
2023-05-05T01:14:56.699Z,3.47
2023-05-05T01:17:23.042Z,3.44
2023-05-05T01:19:49.416Z,3.43
2023-05-05T01:22:15.496Z,3.43
2023-05-05T01:24:41.603Z,3.39
2023-05-05T01:27:08.897Z,3.37
2023-05-05T01:29:35.185Z,3.33
2023-05-05T01:32:01.330Z,3.32
2023-05-05T01:34:27.787Z,3.23
2023-05-05T01:36:53.942Z,3.17
2023-05-05T01:39:20.032Z,3.15
2023-05-05T01:41:46.140Z,3.11
2023-05-05T01:44:12.244Z,3.00
2023-05-05T01:46:38.315Z,2.88
2023-05-05T01:49:04.415Z,2.82
2023-05-05T01:51:30.563Z,2.76
2023-05-05T01:53:56.774Z,2.70
2023-05-05T01:56:22.909Z,2.70
2023-05-05T01:58:48.962Z,2.67
2023-05-05T02:01:15.049Z,2.60
2023-05-05T02:03:41.393Z,2.58
2023-05-05T02:06:07.722Z,2.57
2023-05-05T02:08:34.030Z,2.48
2023-05-05T02:11:00.245Z,2.38
2023-05-05T02:13:26.440Z,2.39
2023-05-05T02:15:52.560Z,2.43
2023-05-05T02:18:18.810Z,2.42
2023-05-05T02:20:45.687Z,2.45
2023-05-05T02:23:11.800Z,2.44
2023-05-05T02:25:38.099Z,2.44
2023-05-05T02:28:04.263Z,2.46
2023-05-05T02:30:30.330Z,2.48
2023-05-05T02:32:56.530Z,2.50
2023-05-05T02:35:22.747Z,2.45
2023-05-05T02:37:48.828Z,2.45
2023-05-05T02:40:14.971Z,2.40
2023-05-05T02:42:41.164Z,2.35
2023-05-05T02:45:07.365Z,2.27
2023-05-05T02:47:34.546Z,2.19
2023-05-05T02:50:00.732Z,2.15
2023-05-05T02:52:26.807Z,2.18
2023-05-05T02:54:53.052Z,2.17
2023-05-05T02:57:19.096Z,2.12
2023-05-05T02:59:48.807Z,2.09
2023-05-05T03:02:15.027Z,2.07
2023-05-05T03:04:41.144Z,2.08
2023-05-05T03:07:07.568Z,2.06
2023-05-05T03:09:33.696Z,2.02
2023-05-05T03:12:00.390Z,1.96
2023-05-05T03:14:26.582Z,1.91
2023-05-05T03:16:52.671Z,1.90
2023-05-05T03:19:18.780Z,1.88
2023-05-05T03:21:44.896Z,1.88
2023-05-05T03:24:11.074Z,1.92
2023-05-05T03:26:37.156Z,1.94
2023-05-05T03:29:06.033Z,1.95
2023-05-05T03:31:32.221Z,1.94
2023-05-05T03:33:58.339Z,2.00
2023-05-05T03:36:25.115Z,2.09
2023-05-05T03:38:52.587Z,2.16
2023-05-05T03:41:18.967Z,2.26
2023-05-05T03:43:45.149Z,2.40
2023-05-05T03:46:14.321Z,2.49
2023-05-05T03:48:41.251Z,2.55
2023-05-05T03:51:07.342Z,2.61
2023-05-05T03:53:33.514Z,2.69
2023-05-05T03:55:59.855Z,2.70
2023-05-05T03:58:25.936Z,2.80
2023-05-05T04:00:52.058Z,2.91
2023-05-05T04:03:18.283Z,3.09
2023-05-05T04:05:44.460Z,3.22
2023-05-05T04:08:10.576Z,3.18
2023-05-05T04:10:36.700Z,3.08
2023-05-05T04:13:03.543Z,3.04
2023-05-05T04:15:29.699Z,3.06
2023-05-05T04:17:55.838Z,3.19
2023-05-05T04:20:22.187Z,3.26
2023-05-05T04:22:49.373Z,3.45
2023-05-05T04:25:17.608Z,3.67
2023-05-05T04:27:43.721Z,3.96
2023-05-05T04:30:10.258Z,4.28
2023-05-05T04:32:36.485Z,4.53
2023-05-05T04:35:03.118Z,4.59
2023-05-05T04:37:29.279Z,4.73
2023-05-05T04:39:55.347Z,4.91
2023-05-05T04:42:21.439Z,4.99
2023-05-05T04:44:47.540Z,4.88
2023-05-05T04:47:14.639Z,4.72
2023-05-05T04:49:40.998Z,4.69
2023-05-05T04:52:07.133Z,4.71
2023-05-05T04:54:33.235Z,4.67
2023-05-05T04:56:59.579Z,4.68
2023-05-05T04:59:25.816Z,4.76
2023-05-05T05:01:51.971Z,4.83
2023-05-05T05:04:18.223Z,4.89
2023-05-05T05:06:45.315Z,5.04
2023-05-05T05:09:11.422Z,5.19
2023-05-05T05:11:37.677Z,5.25
2023-05-05T05:14:03.828Z,5.23
2023-05-05T05:16:30.109Z,5.20
2023-05-05T05:18:56.373Z,5.29
2023-05-05T05:21:22.534Z,5.42
2023-05-05T05:23:48.755Z,5.49
2023-05-05T05:26:15.782Z,5.38
2023-05-05T05:28:41.940Z,5.32
2023-05-05T05:31:08.054Z,5.38
2023-05-05T05:33:34.130Z,5.42
2023-05-05T05:36:00.252Z,5.49
2023-05-05T05:38:26.313Z,5.55
2023-05-05T05:40:53.749Z,5.66
2023-05-05T05:43:19.921Z,5.83
2023-05-05T05:45:46.091Z,5.98
2023-05-05T05:48:12.178Z,6.07
2023-05-05T05:50:38.502Z,6.22
2023-05-05T05:53:04.660Z,6.34
2023-05-05T05:55:30.911Z,6.47
2023-05-05T05:57:57.379Z,6.60
2023-05-05T06:00:23.488Z,6.75
2023-05-05T06:02:50.933Z,6.90
2023-05-05T06:05:17.269Z,7.05
2023-05-05T06:07:43.428Z,7.13
2023-05-05T06:10:25.880Z,7.19
2023-05-05T06:12:53.430Z,7.29
2023-05-05T06:15:19.578Z,7.36
2023-05-05T06:17:45.693Z,7.43
2023-05-05T06:20:12.323Z,7.50
2023-05-05T06:22:38.429Z,7.58
2023-05-05T06:25:04.912Z,7.66
2023-05-05T06:27:31.066Z,7.76
2023-05-05T06:29:57.228Z,7.87
2023-05-05T06:32:23.323Z,7.97
2023-05-05T06:34:49.434Z,8.05
2023-05-05T06:37:15.480Z,8.17
2023-05-05T06:39:41.606Z,8.22
2023-05-05T06:42:07.845Z,8.27
2023-05-05T06:44:35.679Z,8.35
2023-05-05T06:47:01.860Z,8.42
2023-05-05T06:49:28.134Z,8.55
2023-05-05T06:51:54.359Z,8.71
2023-05-05T06:54:20.712Z,8.86
2023-05-05T06:56:46.913Z,9.03
2023-05-05T06:59:13.154Z,9.15
2023-05-05T07:01:39.242Z,9.27
2023-05-05T07:04:06.352Z,9.41
2023-05-05T07:06:33.093Z,9.50
2023-05-05T07:08:59.179Z,9.59
2023-05-05T07:11:25.339Z,9.76
2023-05-05T07:13:51.614Z,9.94
2023-05-05T07:16:17.713Z,10.15
2023-05-05T07:18:43.869Z,10.33
2023-05-05T07:21:09.972Z,10.52
2023-05-05T07:23:37.272Z,10.66
2023-05-05T07:26:03.603Z,10.81
2023-05-05T07:28:29.706Z,10.92
2023-05-05T07:30:55.807Z,11.00
2023-05-05T07:33:21.954Z,11.06
2023-05-05T07:35:48.085Z,11.04
2023-05-05T07:38:14.187Z,11.03
2023-05-05T07:40:40.441Z,11.06
2023-05-05T07:43:06.629Z,11.07
2023-05-05T07:45:32.767Z,11.11
2023-05-05T07:47:59.081Z,11.17
2023-05-05T07:50:26.466Z,11.25
2023-05-05T07:52:59.306Z,11.31
2023-05-05T07:55:36.581Z,11.41
2023-05-05T07:58:03.179Z,11.58
2023-05-05T08:00:29.417Z,11.76
2023-05-05T08:02:55.715Z,11.91
2023-05-05T08:05:21.914Z,12.03
2023-05-05T08:07:48.036Z,12.15
2023-05-05T08:10:14.412Z,12.26
2023-05-05T08:12:40.745Z,12.38
2023-05-05T08:15:07.157Z,12.42
2023-05-05T08:17:33.755Z,12.45
2023-05-05T08:19:59.922Z,12.49
2023-05-05T08:22:25.989Z,12.57
2023-05-05T08:24:52.094Z,12.60
2023-05-05T08:27:18.175Z,12.63
2023-05-05T08:29:44.243Z,12.65
2023-05-05T08:32:12.087Z,12.76
2023-05-05T08:34:38.238Z,12.84
2023-05-05T08:37:04.323Z,12.89
2023-05-05T08:39:30.521Z,12.97
2023-05-05T08:41:56.626Z,13.09
2023-05-05T08:44:22.814Z,13.13
2023-05-05T08:46:48.996Z,13.14
2023-05-05T08:49:15.690Z,13.19
2023-05-05T08:51:41.957Z,13.21
2023-05-05T08:54:08.036Z,13.25
2023-05-05T08:56:34.196Z,13.34
2023-05-05T08:59:03.106Z,13.34
2023-05-05T09:01:29.495Z,13.36
2023-05-05T09:03:55.719Z,13.45
2023-05-05T09:06:22.700Z,13.47
2023-05-05T09:08:48.984Z,13.53
2023-05-05T09:11:15.187Z,13.60
2023-05-05T09:13:41.279Z,13.67
2023-05-05T09:16:07.608Z,13.76
2023-05-05T09:18:33.668Z,13.95
2023-05-05T09:20:59.792Z,14.12
2023-05-05T09:23:26.066Z,14.21
2023-05-05T09:25:52.122Z,14.26
2023-05-05T09:28:18.211Z,14.26
2023-05-05T09:30:44.410Z,14.31
2023-05-05T09:33:10.736Z,14.39
2023-05-05T09:35:37.041Z,14.46
2023-05-05T09:38:03.177Z,14.56
2023-05-05T09:40:29.220Z,14.61
2023-05-05T09:42:55.288Z,14.68
2023-05-05T09:45:21.401Z,14.73
2023-05-05T09:47:47.763Z,14.73
2023-05-05T09:50:15.325Z,14.78
2023-05-05T09:52:42.106Z,14.89
2023-05-05T09:55:08.189Z,14.96
2023-05-05T09:57:34.360Z,14.98
2023-05-05T10:00:00.576Z,15.00
2023-05-05T10:02:27.643Z,15.09
2023-05-05T10:04:53.817Z,15.18
2023-05-05T10:07:20.226Z,15.20
2023-05-05T10:09:46.299Z,15.18
2023-05-05T10:12:12.401Z,15.26
2023-05-05T10:14:38.567Z,15.35
2023-05-05T10:17:04.745Z,15.41
2023-05-05T10:19:31.755Z,15.49
2023-05-05T10:21:57.906Z,15.56
2023-05-05T10:24:24.009Z,15.64
2023-05-05T10:26:50.142Z,15.76
2023-05-05T10:29:16.668Z,15.77
2023-05-05T10:31:42.875Z,15.76
2023-05-05T10:34:09.111Z,15.78
2023-05-05T10:36:35.832Z,15.86
2023-05-05T10:39:01.953Z,15.92
2023-05-05T10:41:28.055Z,15.99
2023-05-05T10:43:54.240Z,16.06
2023-05-05T10:46:20.431Z,16.13
2023-05-05T10:48:46.594Z,16.16
2023-05-05T10:51:14.181Z,16.17
2023-05-05T10:53:45.012Z,16.26
2023-05-05T10:56:11.214Z,16.39
2023-05-05T10:58:50.966Z,16.52
2023-05-05T11:01:17.748Z,16.59
2023-05-05T11:03:44.088Z,16.57
2023-05-05T11:06:11.838Z,16.61
2023-05-05T11:08:38.072Z,16.67
2023-05-05T11:11:04.172Z,16.75
2023-05-05T11:13:30.497Z,16.69
2023-05-05T11:15:56.733Z,16.62
2023-05-05T11:18:22.877Z,16.63
2023-05-05T11:20:49.255Z,16.61
2023-05-05T11:23:16.633Z,16.63
2023-05-05T11:25:43.918Z,16.61
2023-05-05T11:28:10.481Z,16.68
2023-05-05T11:30:36.650Z,16.69
2023-05-05T11:33:02.852Z,16.67
2023-05-05T11:35:28.985Z,16.73
2023-05-05T11:37:55.064Z,16.85
2023-05-05T11:40:21.503Z,16.97
2023-05-05T11:42:47.620Z,16.99
2023-05-05T11:45:13.806Z,17.01
2023-05-05T11:47:40.074Z,17.04
2023-05-05T11:50:06.448Z,17.01
2023-05-05T11:52:33.848Z,17.00
2023-05-05T11:55:00.290Z,17.08
2023-05-05T11:57:26.470Z,17.11
2023-05-05T11:59:52.539Z,17.18
2023-05-05T12:02:18.727Z,17.29
2023-05-05T12:04:46.181Z,17.33
2023-05-05T12:07:12.297Z,17.36
2023-05-05T12:09:38.453Z,17.42
2023-05-05T12:12:04.521Z,17.44
2023-05-05T12:14:30.742Z,17.42
2023-05-05T12:16:57.488Z,17.42
2023-05-05T12:19:23.670Z,17.43
2023-05-05T12:21:49.960Z,17.49
2023-05-05T12:24:16.245Z,17.48
2023-05-05T12:26:42.361Z,17.46
2023-05-05T12:29:08.455Z,17.47
2023-05-05T12:31:35.077Z,17.44
2023-05-05T12:34:01.275Z,17.39
2023-05-05T12:36:29.238Z,17.42
2023-05-05T12:38:56.616Z,17.54
2023-05-05T12:41:22.831Z,17.63
2023-05-05T12:43:48.912Z,17.66
2023-05-05T12:46:15.145Z,17.60
2023-05-05T12:48:43.975Z,17.61
2023-05-05T12:51:11.492Z,17.64
2023-05-05T12:53:37.705Z,17.70
2023-05-05T12:56:04.019Z,17.83
2023-05-05T12:58:31.979Z,17.98
2023-05-05T13:00:58.225Z,18.08
2023-05-05T13:03:24.579Z,18.12
2023-05-05T13:05:51.053Z,18.18
2023-05-05T13:08:17.921Z,18.11
2023-05-05T13:10:44.044Z,18.01
2023-05-05T13:13:10.173Z,17.96
2023-05-05T13:15:37.069Z,17.95
2023-05-05T13:18:03.237Z,17.96
2023-05-05T13:20:29.357Z,17.96
2023-05-05T13:22:55.549Z,17.97
2023-05-05T13:25:22.110Z,17.99
2023-05-05T13:27:48.198Z,18.00
2023-05-05T13:30:14.305Z,18.05
2023-05-05T13:32:40.643Z,18.03
2023-05-05T13:35:07.052Z,18.01
2023-05-05T13:37:33.644Z,18.01
2023-05-05T13:40:00.659Z,18.08
2023-05-05T13:42:26.815Z,18.28
2023-05-05T13:44:53.178Z,18.52
2023-05-05T13:47:19.436Z,18.53
2023-05-05T13:49:46.002Z,18.52
2023-05-05T13:52:12.181Z,18.51
2023-05-05T13:54:38.582Z,18.48
2023-05-05T13:57:07.189Z,18.45
2023-05-05T13:59:33.271Z,18.38
2023-05-05T14:02:00.541Z,18.38
2023-05-05T14:04:26.686Z,18.44
2023-05-05T14:06:52.914Z,18.45
2023-05-05T14:09:18.978Z,18.49
2023-05-05T14:11:45.015Z,18.50
2023-05-05T14:14:11.295Z,18.45
2023-05-05T14:16:37.665Z,18.44
2023-05-05T14:19:03.949Z,18.44
2023-05-05T14:21:31.931Z,18.39
2023-05-05T14:23:57.994Z,18.39
2023-05-05T14:26:24.906Z,18.45
2023-05-05T14:28:51.141Z,18.52
2023-05-05T14:31:17.277Z,18.64
2023-05-05T14:33:43.328Z,18.73
2023-05-05T14:36:09.757Z,18.76
2023-05-05T14:38:35.862Z,18.78
2023-05-05T14:41:02.018Z,18.72
2023-05-05T14:43:28.240Z,18.60
2023-05-05T14:45:54.481Z,18.51
2023-05-05T14:48:21.533Z,18.57
2023-05-05T14:50:47.888Z,18.62
2023-05-05T14:53:13.941Z,18.65
2023-05-05T14:55:40.072Z,18.67
2023-05-05T14:58:06.214Z,18.77
2023-05-05T15:00:35.130Z,18.83
2023-05-05T15:03:01.472Z,18.80
2023-05-05T15:05:27.727Z,18.73
2023-05-05T15:07:53.796Z,18.74
2023-05-05T15:10:21.867Z,18.79
2023-05-05T15:12:48.576Z,18.81
2023-05-05T15:15:14.716Z,18.89
2023-05-05T15:17:41.245Z,18.98
2023-05-05T15:20:07.726Z,19.07
2023-05-05T15:22:33.867Z,19.18
2023-05-05T15:25:00.518Z,19.27
2023-05-05T15:27:26.865Z,19.35
2023-05-05T15:29:53.769Z,19.43
2023-05-05T15:32:19.912Z,19.40
2023-05-05T15:34:48.330Z,19.14
2023-05-05T15:37:15.798Z,18.88
2023-05-05T15:39:41.947Z,18.66
2023-05-05T15:42:09.785Z,18.50
2023-05-05T15:44:35.849Z,18.41
2023-05-05T15:47:01.942Z,18.35
2023-05-05T15:49:28.089Z,18.39
2023-05-05T15:51:54.173Z,18.42
2023-05-05T15:54:20.329Z,18.44
2023-05-05T15:56:46.718Z,18.41
2023-05-05T15:59:12.794Z,18.37
2023-05-05T16:01:39.070Z,18.34
2023-05-05T16:04:05.586Z,18.26
2023-05-05T16:06:31.642Z,18.09
2023-05-05T16:08:58.133Z,17.99
2023-05-05T16:11:25.286Z,18.01
2023-05-05T16:13:51.401Z,17.98
2023-05-05T16:16:17.546Z,17.85
2023-05-05T16:18:43.866Z,17.79
2023-05-05T16:21:10.307Z,17.76
2023-05-05T16:23:36.542Z,17.64
2023-05-05T16:26:03.431Z,17.48
2023-05-05T16:28:29.509Z,17.36
2023-05-05T16:30:55.738Z,17.23
2023-05-05T16:33:21.947Z,17.16
2023-05-05T16:35:48.006Z,17.14
2023-05-05T16:38:14.227Z,17.07
2023-05-05T16:40:40.339Z,16.95
2023-05-05T16:43:06.398Z,16.86
2023-05-05T16:45:32.513Z,16.81
2023-05-05T16:47:58.599Z,16.74
2023-05-05T16:50:24.705Z,16.67
2023-05-05T16:52:51.008Z,16.66
2023-05-05T16:55:17.136Z,16.62
2023-05-05T16:57:43.244Z,16.58
2023-05-05T17:00:09.541Z,16.57
2023-05-05T17:02:35.903Z,16.52
2023-05-05T17:05:02.305Z,16.54
2023-05-05T17:07:28.409Z,16.47
2023-05-05T17:09:54.531Z,16.37
2023-05-05T17:12:20.672Z,16.26
2023-05-05T17:14:47.010Z,16.15
2023-05-05T17:17:13.608Z,16.03
2023-05-05T17:19:40.010Z,15.90
2023-05-05T17:22:06.095Z,15.79
2023-05-05T17:24:32.214Z,15.67
2023-05-05T17:26:58.879Z,15.57
2023-05-05T17:29:25.806Z,15.45
2023-05-05T17:31:53.405Z,15.36
2023-05-05T17:34:19.717Z,15.27
2023-05-05T17:36:46.081Z,15.18
2023-05-05T17:39:13.015Z,15.10
2023-05-05T17:41:41.207Z,15.03
2023-05-05T17:44:07.338Z,14.98
2023-05-05T17:46:33.544Z,14.89
2023-05-05T17:48:59.828Z,14.83
2023-05-05T17:51:26.718Z,14.80
2023-05-05T17:53:52.830Z,14.76
2023-05-05T17:56:18.923Z,14.71
2023-05-05T17:58:45.128Z,14.64
2023-05-05T18:01:13.367Z,14.54
2023-05-05T18:03:41.016Z,14.48
2023-05-05T18:06:07.348Z,14.45
2023-05-05T18:08:33.653Z,14.40
2023-05-05T18:11:01.086Z,14.39
2023-05-05T18:13:27.331Z,14.36
2023-05-05T18:15:53.641Z,14.34
2023-05-05T18:18:20.357Z,14.30
2023-05-05T18:20:46.591Z,14.21
2023-05-05T18:23:12.932Z,14.11
2023-05-05T18:25:39.039Z,14.02
2023-05-05T18:28:05.277Z,13.93
2023-05-05T18:30:31.670Z,13.85
2023-05-05T18:32:58.034Z,13.77
2023-05-05T18:35:24.126Z,13.71
2023-05-05T18:37:50.470Z,13.63
2023-05-05T18:40:16.732Z,13.53
2023-05-05T18:42:43.056Z,13.47
2023-05-05T18:45:09.802Z,13.43
2023-05-05T18:47:36.265Z,13.38
2023-05-05T18:50:02.352Z,13.32
2023-05-05T18:52:28.506Z,13.28
2023-05-05T18:54:54.686Z,13.17
2023-05-05T18:57:21.358Z,13.08
2023-05-05T18:59:47.543Z,12.99
2023-05-05T19:02:13.712Z,12.96
2023-05-05T19:04:40.620Z,12.92
2023-05-05T19:07:06.884Z,12.88
2023-05-05T19:09:32.956Z,12.86
2023-05-05T19:11:59.105Z,12.83
2023-05-05T19:14:25.302Z,12.80
2023-05-05T19:16:51.470Z,13.01
2023-05-05T19:19:17.649Z,13.44
2023-05-05T19:21:43.896Z,13.69
2023-05-05T19:24:10.066Z,13.70
2023-05-05T19:26:36.363Z,13.82
2023-05-05T19:29:02.579Z,13.86
2023-05-05T19:31:30.224Z,13.71
2023-05-05T19:33:56.376Z,13.58
2023-05-05T19:36:22.578Z,13.38
2023-05-05T19:38:48.707Z,13.20
2023-05-05T19:41:16.601Z,13.01
2023-05-05T19:43:45.598Z,12.85
2023-05-05T19:46:11.800Z,12.73
2023-05-05T19:48:37.986Z,12.57
2023-05-05T19:51:04.183Z,12.38
2023-05-05T19:53:30.253Z,12.25
2023-05-05T19:55:56.355Z,12.16
2023-05-05T19:58:22.566Z,12.10
2023-05-05T20:00:48.745Z,12.07
2023-05-05T20:03:14.978Z,12.02
2023-05-05T20:05:41.132Z,11.90
2023-05-05T20:08:07.212Z,11.81
2023-05-05T20:10:33.397Z,11.76
2023-05-05T20:12:59.735Z,11.72
2023-05-05T20:15:26.079Z,11.68
2023-05-05T20:17:52.679Z,11.62
2023-05-05T20:20:19.342Z,11.54
2023-05-05T20:22:45.740Z,11.50
2023-05-05T20:25:12.274Z,11.46
2023-05-05T20:27:38.458Z,11.41
2023-05-05T20:30:04.504Z,11.34
2023-05-05T20:32:30.952Z,11.29
2023-05-05T20:34:57.234Z,11.23
2023-05-05T20:37:26.299Z,11.16
2023-05-05T20:39:52.384Z,11.10
2023-05-05T20:42:18.525Z,11.06
2023-05-05T20:44:44.791Z,11.01
2023-05-05T20:47:12.967Z,10.96
2023-05-05T20:49:39.184Z,10.90
2023-05-05T20:52:05.290Z,10.84
2023-05-05T20:54:32.070Z,10.80
2023-05-05T20:56:58.223Z,10.76
2023-05-05T20:59:27.202Z,10.72
2023-05-05T21:01:53.521Z,10.65
2023-05-05T21:04:19.814Z,10.62
2023-05-05T21:06:46.058Z,10.58
2023-05-05T21:09:12.161Z,10.53
2023-05-05T21:11:38.355Z,10.49
2023-05-05T21:14:04.404Z,10.46
2023-05-05T21:16:33.607Z,10.41
2023-05-05T21:18:59.883Z,10.38
2023-05-05T21:21:26.118Z,10.35
2023-05-05T21:23:54.528Z,10.32
2023-05-05T21:26:20.635Z,10.26
2023-05-05T21:28:46.726Z,10.16
2023-05-05T21:31:21.753Z,10.11
2023-05-05T21:33:48.465Z,10.10
2023-05-05T21:36:16.748Z,10.08
2023-05-05T21:38:42.926Z,10.07
2023-05-05T21:41:09.042Z,10.05
2023-05-05T21:43:35.359Z,10.07
2023-05-05T21:46:01.475Z,10.08
2023-05-05T21:48:27.802Z,10.07
2023-05-05T21:50:53.909Z,10.06
2023-05-05T21:53:19.981Z,10.03
2023-05-05T21:55:46.083Z,10.01
2023-05-05T21:58:12.146Z,9.98
2023-05-05T22:00:38.202Z,9.91
2023-05-05T22:03:04.454Z,9.83
2023-05-05T22:05:31.011Z,9.77
2023-05-05T22:07:57.123Z,9.73
2023-05-05T22:10:23.254Z,9.69
2023-05-05T22:12:49.367Z,9.62
2023-05-05T22:15:19.139Z,9.52
2023-05-05T22:17:45.871Z,9.47
2023-05-05T22:20:11.998Z,9.46
2023-05-05T22:22:38.057Z,9.45
2023-05-05T22:25:04.455Z,9.41
2023-05-05T22:27:30.560Z,9.36
2023-05-05T22:29:56.647Z,9.33
2023-05-05T22:32:22.774Z,9.32
2023-05-05T22:34:48.942Z,9.28
2023-05-05T22:37:15.488Z,9.17
2023-05-05T22:39:41.610Z,9.07
2023-05-05T22:42:07.716Z,8.93
2023-05-05T22:44:33.832Z,8.74
2023-05-05T22:47:00.723Z,8.47
2023-05-05T22:49:28.055Z,8.34
2023-05-05T22:51:54.174Z,8.30
2023-05-05T22:54:20.343Z,8.24
2023-05-05T22:56:46.681Z,8.14
2023-05-05T22:59:12.756Z,8.13
2023-05-05T23:01:39.324Z,8.14
2023-05-05T23:04:05.809Z,8.09
2023-05-05T23:06:32.143Z,8.06
2023-05-05T23:08:58.312Z,8.04
2023-05-05T23:11:24.418Z,8.04
2023-05-05T23:13:50.494Z,8.03
2023-05-05T23:16:19.538Z,8.03
2023-05-05T23:18:45.627Z,7.98
2023-05-05T23:21:11.772Z,7.85
2023-05-05T23:23:37.938Z,7.77
2023-05-05T23:26:04.127Z,7.70
2023-05-05T23:28:30.306Z,7.67
2023-05-05T23:30:56.498Z,7.60
2023-05-05T23:33:22.673Z,7.57
2023-05-05T23:35:48.854Z,7.53
2023-05-05T23:38:15.507Z,7.50
2023-05-05T23:40:41.580Z,7.43
2023-05-05T23:43:07.736Z,7.38
2023-05-05T23:45:33.887Z,7.31
2023-05-05T23:48:00.062Z,7.22
2023-05-05T23:50:27.089Z,7.14
2023-05-05T23:52:53.254Z,7.09
2023-05-05T23:55:19.298Z,7.05
2023-05-05T23:57:45.349Z,7.03
